Terminal Aerodrome Forecast
Issued by NWS

Home | Current Version | Previous Version | Text Only | Print | Product List | Glossary On
Versions: 1 2 3 4 5 6 7 8 9 10 11 12 13 14 15 16 17 18 19 20 21 22 23 24 25 26 27 28 29 30 31 32 33 34
000
FTUS45 KGJT 242339
TAFRIL
TAF
KRIL 242339Z 2500/2524 10008KT P6SM VCSH SCT070 BKN110
     FM250300 19008KT P6SM FEW070 SCT100
     FM250600 18006KT P6SM BKN070
     FM251400 25007KT P6SM -SHRA OVC025
     FM251800 25008G15KT P6SM VCSH SCT030 OVC050
      TEMPO 2520/2524 VRB15G30KT 5SM -TSRA SCT030 BKN040CB=

USA.gov is the U.S. government's official web portal to all federal, state and local government web resources and services.